createdAt,value
2022-08-11T00:02:35.444Z,17.98
2022-08-11T00:05:08.504Z,18.83
2022-08-11T00:07:45.261Z,18.95
2022-08-11T00:10:16.219Z,18.88
2022-08-11T00:12:52.440Z,18.97
2022-08-11T00:15:21.117Z,19.03
2022-08-11T00:17:50.183Z,18.83
2022-08-11T00:20:19.965Z,18.88
2022-08-11T00:22:50.028Z,18.82
2022-08-11T00:25:20.984Z,18.69
2022-08-11T00:27:50.737Z,18.74
2022-08-11T00:30:19.660Z,18.69
2022-08-11T00:32:56.378Z,18.66
2022-08-11T00:35:53.751Z,18.80
2022-08-11T00:38:18.849Z,18.82
2022-08-11T00:40:54.636Z,18.85
2022-08-11T00:43:43.185Z,18.54
2022-08-11T00:46:18.697Z,18.46
2022-08-11T00:49:01.801Z,18.05
2022-08-11T00:52:04.595Z,18.29
2022-08-11T00:55:31.114Z,18.24
2022-08-11T00:58:58.133Z,18.31
2022-08-11T01:01:50.743Z,18.50
2022-08-11T01:05:02.456Z,18.34
2022-08-11T01:08:37.956Z,17.89
2022-08-11T01:11:40.506Z,18.40
2022-08-11T01:15:14.570Z,18.44
2022-08-11T01:18:23.427Z,18.46
2022-08-11T01:21:39.611Z,18.23
2022-08-11T01:24:43.869Z,18.23
2022-08-11T01:27:33.497Z,18.40
2022-08-11T01:30:44.897Z,18.12
2022-08-11T01:34:04.379Z,18.05
2022-08-11T01:37:38.973Z,17.93
2022-08-11T01:41:03.993Z,17.96
2022-08-11T01:44:43.636Z,18.02
2022-08-11T01:47:53.178Z,18.04
2022-08-11T01:50:55.424Z,17.57
2022-08-11T01:53:36.135Z,18.04
2022-08-11T01:56:24.506Z,17.93
2022-08-11T01:59:03.724Z,17.84
2022-08-11T02:01:45.520Z,17.87
2022-08-11T02:04:25.279Z,17.76
2022-08-11T02:07:03.896Z,17.64
2022-08-11T02:10:35.349Z,17.68
2022-08-11T02:13:19.365Z,17.66
2022-08-11T02:16:14.843Z,17.69
2022-08-11T02:19:08.377Z,17.69
2022-08-11T02:22:05.236Z,17.67
2022-08-11T02:24:43.340Z,17.71
2022-08-11T02:27:23.052Z,17.61
2022-08-11T02:30:05.068Z,17.35
2022-08-11T02:32:58.147Z,16.75
2022-08-11T02:35:36.773Z,17.73
2022-08-11T02:38:18.118Z,17.82
2022-08-11T02:40:54.020Z,17.80
2022-08-11T02:43:36.647Z,17.91
2022-08-11T02:46:21.520Z,17.74
2022-08-11T02:49:24.438Z,17.79
2022-08-11T02:52:05.961Z,17.11
2022-08-11T02:54:43.681Z,17.69
2022-08-11T02:57:21.019Z,17.93
2022-08-11T02:59:55.245Z,17.82
2022-08-11T03:02:41.189Z,18.00
2022-08-11T03:05:27.085Z,17.83
2022-08-11T03:08:18.689Z,17.68
2022-08-11T03:11:19.308Z,17.68
2022-08-11T03:14:28.308Z,17.36
2022-08-11T03:17:07.539Z,17.89
2022-08-11T03:19:48.200Z,17.66
2022-08-11T03:22:25.036Z,17.74
2022-08-11T03:25:03.364Z,17.02
2022-08-11T03:27:54.614Z,17.84
2022-08-11T03:30:28.928Z,17.84
2022-08-11T03:33:37.312Z,17.62
2022-08-11T03:36:18.520Z,17.60
2022-08-11T03:39:01.167Z,17.35
2022-08-11T03:42:01.997Z,17.33
2022-08-11T03:44:51.378Z,17.26
2022-08-11T03:47:52.611Z,17.15
2022-08-11T03:51:04.138Z,17.13
2022-08-11T03:53:50.602Z,17.11
2022-08-11T03:56:49.536Z,17.07
2022-08-11T04:00:05.943Z,16.66
2022-08-11T04:07:31.264Z,16.99
2022-08-11T04:11:08.605Z,16.84
2022-08-11T04:14:29.270Z,16.76
2022-08-11T04:17:34.267Z,16.79
2022-08-11T04:20:53.053Z,16.78
2022-08-11T04:24:36.903Z,16.90
2022-08-11T04:27:19.252Z,16.76
2022-08-11T04:30:27.343Z,16.90
2022-08-11T04:33:34.385Z,16.96
2022-08-11T04:36:48.247Z,16.86
2022-08-11T04:39:44.937Z,16.88
2022-08-11T04:43:21.975Z,16.89
2022-08-11T04:46:19.069Z,16.94
2022-08-11T04:49:34.224Z,16.90
2022-08-11T04:52:56.088Z,16.96
2022-08-11T04:56:04.238Z,17.01
2022-08-11T04:59:40.867Z,17.07
2022-08-11T05:02:50.406Z,17.22
2022-08-11T05:05:35.868Z,17.22
2022-08-11T05:08:56.825Z,17.28
2022-08-11T05:12:06.965Z,17.42
2022-08-11T05:14:57.914Z,17.46
2022-08-11T05:17:55.032Z,17.48
2022-08-11T05:20:45.498Z,17.47
2022-08-11T05:23:32.270Z,17.68
2022-08-11T05:26:46.524Z,17.77
2022-08-11T05:29:57.203Z,17.88
2022-08-11T05:32:44.597Z,17.31
2022-08-11T05:35:28.319Z,17.92
2022-08-11T05:38:20.635Z,17.94
2022-08-11T05:41:09.148Z,18.07
2022-08-11T05:44:20.425Z,18.16
2022-08-11T05:47:10.214Z,18.24
2022-08-11T05:49:58.097Z,18.31
2022-08-11T05:52:47.114Z,18.35
2022-08-11T05:55:35.555Z,18.54
2022-08-11T05:58:21.101Z,18.67
2022-08-11T06:00:49.634Z,18.82
2022-08-11T06:03:29.369Z,18.93
2022-08-11T06:05:59.253Z,18.95
2022-08-11T06:08:36.142Z,19.07
2022-08-11T06:11:07.246Z,19.28
2022-08-11T06:13:35.922Z,19.43
2022-08-11T06:16:07.045Z,19.34
2022-08-11T06:18:38.710Z,19.50
2022-08-11T06:21:12.338Z,19.55
2022-08-11T06:23:42.614Z,19.60
2022-08-11T06:26:12.917Z,19.58
2022-08-11T06:28:46.068Z,19.87
2022-08-11T06:31:19.470Z,19.98
2022-08-11T06:34:01.342Z,19.98
2022-08-11T06:36:37.034Z,20.04
2022-08-11T06:39:18.844Z,20.20
2022-08-11T06:41:51.058Z,20.37
2022-08-11T06:44:29.758Z,19.74
2022-08-11T06:47:08.810Z,20.44
2022-08-11T06:50:04.379Z,20.55
2022-08-11T06:52:36.516Z,20.70
2022-08-11T06:55:57.506Z,20.88
2022-08-11T06:58:17.575Z,21.08
2022-08-11T07:00:48.549Z,21.30
2022-08-11T07:03:20.427Z,20.70
2022-08-11T07:05:55.493Z,21.34
2022-08-11T07:09:42.191Z,21.43
2022-08-11T07:12:59.510Z,21.69
2022-08-11T07:16:11.336Z,21.69
2022-08-11T07:18:54.312Z,21.83
2022-08-11T07:22:00.873Z,21.79
2022-08-11T07:25:01.613Z,22.00
2022-08-11T07:27:55.129Z,22.19
2022-08-11T07:30:25.729Z,22.29
2022-08-11T07:32:56.998Z,22.48
2022-08-11T07:35:33.347Z,22.67
2022-08-11T07:38:08.802Z,22.64
2022-08-11T07:40:38.636Z,22.90
2022-08-11T07:43:08.046Z,23.13
2022-08-11T07:45:55.301Z,23.11
2022-08-11T07:48:41.531Z,23.16
2022-08-11T07:51:27.930Z,23.33
2022-08-11T07:54:07.601Z,23.27
2022-08-11T07:56:55.158Z,23.49
2022-08-11T08:00:04.368Z,23.58
2022-08-11T08:02:59.223Z,23.66
2022-08-11T08:05:45.141Z,23.75
2022-08-11T08:08:33.998Z,23.85
2022-08-11T08:11:27.266Z,23.94
2022-08-11T08:14:14.827Z,24.14
2022-08-11T08:17:01.607Z,24.14
2022-08-11T08:19:30.542Z,24.10
2022-08-11T08:22:05.037Z,24.19
2022-08-11T08:24:48.669Z,24.23
2022-08-11T08:27:19.830Z,24.38
2022-08-11T08:30:06.688Z,24.71
2022-08-11T08:32:39.964Z,24.78
2022-08-11T08:35:11.694Z,24.90
2022-08-11T08:37:45.705Z,24.90
2022-08-11T08:40:16.487Z,24.29
2022-08-11T08:42:53.715Z,24.88
2022-08-11T08:45:23.211Z,24.86
2022-08-11T08:48:00.216Z,24.88
2022-08-11T08:50:47.741Z,24.99
2022-08-11T08:53:21.883Z,25.14
2022-08-11T08:55:51.865Z,25.30
2022-08-11T08:58:25.055Z,25.06
2022-08-11T09:00:56.226Z,25.26
2022-08-11T09:04:02.797Z,25.23
2022-08-11T09:06:16.649Z,25.36
2022-08-11T09:08:46.330Z,25.33
2022-08-11T09:11:35.541Z,25.46
2022-08-11T09:14:10.313Z,25.38
2022-08-11T09:16:41.434Z,25.31
2022-08-11T09:19:10.243Z,24.74
2022-08-11T09:21:49.235Z,24.74
2022-08-11T09:24:36.680Z,25.51
2022-08-11T09:27:08.089Z,25.73
2022-08-11T09:29:39.983Z,25.69
2022-08-11T09:32:08.974Z,25.79
2022-08-11T09:34:38.634Z,25.90
2022-08-11T09:37:53.749Z,25.90
2022-08-11T09:40:32.586Z,26.16
2022-08-11T09:43:22.197Z,26.21
2022-08-11T09:45:54.381Z,26.36
2022-08-11T09:48:25.583Z,26.38
2022-08-11T09:50:57.384Z,26.32
2022-08-11T09:53:36.743Z,26.44
2022-08-11T09:56:31.421Z,26.62
2022-08-11T09:59:00.828Z,26.56
2022-08-11T10:01:35.932Z,26.57
2022-08-11T10:04:20.196Z,26.69
2022-08-11T10:07:05.651Z,26.77
2022-08-11T10:09:41.937Z,27.01
2022-08-11T10:12:13.182Z,27.06
2022-08-11T10:15:03.909Z,27.28
2022-08-11T10:17:38.120Z,27.05
2022-08-11T10:20:10.080Z,27.41
2022-08-11T10:22:56.682Z,27.39
2022-08-11T10:25:42.799Z,27.36
2022-08-11T10:28:30.830Z,27.50
2022-08-11T10:31:18.692Z,27.51
2022-08-11T10:34:01.987Z,27.54
2022-08-11T10:36:33.404Z,27.56
2022-08-11T10:39:04.091Z,27.74
2022-08-11T10:42:07.373Z,27.94
2022-08-11T10:44:42.251Z,27.78
2022-08-11T10:47:31.522Z,27.82
2022-08-11T10:50:19.592Z,27.89
2022-08-11T10:53:08.510Z,27.94
2022-08-11T10:55:58.765Z,27.99
2022-08-11T10:58:45.504Z,28.02
2022-08-11T11:01:15.045Z,27.82
2022-08-11T11:03:44.286Z,27.80
2022-08-11T11:06:44.971Z,28.59
2022-08-11T11:09:18.431Z,28.15
2022-08-11T11:12:11.133Z,28.64
2022-08-11T11:15:06.964Z,28.35
2022-08-11T11:18:01.776Z,28.52
2022-08-11T11:20:47.513Z,28.47
2022-08-11T11:23:21.786Z,28.64
2022-08-11T11:26:28.348Z,28.83
2022-08-11T11:29:21.237Z,29.08
2022-08-11T11:32:06.821Z,29.16
2022-08-11T11:34:59.427Z,29.09
2022-08-11T11:37:31.578Z,29.01
2022-08-11T11:40:11.358Z,29.18
2022-08-11T11:42:41.953Z,29.01
2022-08-11T11:45:22.838Z,29.11
2022-08-11T11:47:55.437Z,29.38
2022-08-11T11:50:31.800Z,29.59
2022-08-11T11:53:04.792Z,29.59
2022-08-11T11:55:35.368Z,29.76
2022-08-11T11:58:23.220Z,29.93
2022-08-11T12:01:11.010Z,29.99
2022-08-11T12:03:43.215Z,29.92
2022-08-11T12:06:14.100Z,30.24
2022-08-11T12:08:45.389Z,30.17
2022-08-11T12:11:34.347Z,30.26
2022-08-11T12:14:10.702Z,30.25
2022-08-11T12:16:42.361Z,30.38
2022-08-11T12:19:15.204Z,30.14
2022-08-11T12:22:01.220Z,30.63
2022-08-11T12:24:48.981Z,30.56
2022-08-11T12:27:25.111Z,30.62
2022-08-11T12:29:57.839Z,30.00
2022-08-11T12:32:30.160Z,30.43
2022-08-11T12:34:59.157Z,30.62
2022-08-11T12:37:32.978Z,30.60
2022-08-11T12:40:43.494Z,30.67
2022-08-11T12:43:38.145Z,31.04
2022-08-11T12:46:11.293Z,31.04
2022-08-11T12:49:04.325Z,30.62
2022-08-11T12:52:01.572Z,31.34
2022-08-11T12:54:51.731Z,31.28
2022-08-11T12:57:47.226Z,31.12
2022-08-11T13:00:36.508Z,31.24
2022-08-11T13:03:26.027Z,31.57
2022-08-11T13:05:57.906Z,31.51
2022-08-11T13:08:29.551Z,31.80
2022-08-11T13:11:19.070Z,31.69
2022-08-11T13:13:54.256Z,31.91
2022-08-11T13:16:29.648Z,32.03
2022-08-11T13:19:01.196Z,32.25
2022-08-11T13:21:30.603Z,32.03
2022-08-11T13:24:02.779Z,31.94
2022-08-11T13:26:48.378Z,32.17
2022-08-11T13:29:25.179Z,32.25
2022-08-11T13:31:59.704Z,31.80
2022-08-11T13:34:32.358Z,32.23
2022-08-11T13:37:05.366Z,31.57
2022-08-11T13:39:36.281Z,32.10
2022-08-11T13:42:06.537Z,31.65
2022-08-11T13:44:38.937Z,31.62
2022-08-11T13:47:13.272Z,31.29
2022-08-11T13:49:43.544Z,31.48
2022-08-11T13:52:15.290Z,31.69
2022-08-11T13:54:46.333Z,31.82
2022-08-11T13:58:08.755Z,32.31
2022-08-11T14:00:20.895Z,31.77
2022-08-11T14:02:59.010Z,31.48
2022-08-11T14:05:30.478Z,31.95
2022-08-11T14:08:03.363Z,32.40
2022-08-11T14:10:35.199Z,32.22
2022-08-11T14:13:28.121Z,32.04
2022-08-11T14:16:02.282Z,32.01
2022-08-11T14:18:33.883Z,31.80
2022-08-11T14:21:23.430Z,32.11
2022-08-11T14:23:55.340Z,32.20
2022-08-11T14:26:26.328Z,32.23
2022-08-11T14:28:59.121Z,32.02
2022-08-11T14:31:33.234Z,31.97
2022-08-11T14:34:06.876Z,32.03
2022-08-11T14:36:38.117Z,32.00
2022-08-11T14:39:12.916Z,32.00
2022-08-11T14:42:11.287Z,32.18
2022-08-11T14:45:02.552Z,32.21
2022-08-11T14:47:35.306Z,32.02
2022-08-11T14:50:11.283Z,32.17
2022-08-11T14:52:47.185Z,32.26
2022-08-11T14:55:34.192Z,32.17
2022-08-11T14:58:03.515Z,32.32
2022-08-11T15:00:33.230Z,32.09
2022-08-11T15:03:10.892Z,32.04
2022-08-11T15:05:56.956Z,31.77
2022-08-11T15:08:48.011Z,31.66
2022-08-11T15:11:36.673Z,31.88
2022-08-11T15:14:08.106Z,31.76
2022-08-11T15:16:56.334Z,31.79
2022-08-11T15:19:40.610Z,31.73
2022-08-11T15:22:29.369Z,31.59
2022-08-11T15:24:59.781Z,31.45
2022-08-11T15:27:49.491Z,31.19
2022-08-11T15:30:35.854Z,31.17
2022-08-11T15:33:28.059Z,30.95
2022-08-11T15:36:15.572Z,30.88
2022-08-11T15:38:55.179Z,30.81
2022-08-11T15:41:54.577Z,30.80
2022-08-11T15:45:05.098Z,30.94
2022-08-11T15:47:41.369Z,30.85
2022-08-11T15:50:16.786Z,30.74
2022-08-11T15:52:58.072Z,30.87
2022-08-11T15:55:32.454Z,30.90
2022-08-11T15:58:21.866Z,30.94
2022-08-11T16:01:09.534Z,30.04
2022-08-11T16:04:13.083Z,30.46
2022-08-11T16:06:53.042Z,30.53
2022-08-11T16:09:47.086Z,30.29
2022-08-11T16:12:28.558Z,30.33
2022-08-11T16:15:20.033Z,30.20
2022-08-11T16:17:53.236Z,30.02
2022-08-11T16:20:24.196Z,30.09
2022-08-11T16:23:02.569Z,29.91
2022-08-11T16:27:01.506Z,29.84
2022-08-11T16:28:29.572Z,29.77
2022-08-11T16:30:58.774Z,29.54
2022-08-11T16:33:49.635Z,29.37
2022-08-11T16:36:35.780Z,29.07
2022-08-11T16:39:05.855Z,29.09
2022-08-11T16:41:54.845Z,29.17
2022-08-11T16:44:44.609Z,29.14
2022-08-11T16:47:16.992Z,28.85
2022-08-11T16:49:53.019Z,29.12
2022-08-11T16:52:22.981Z,29.16
2022-08-11T16:54:52.691Z,29.23
2022-08-11T16:57:42.921Z,29.14
2022-08-11T17:00:17.505Z,29.30
2022-08-11T17:03:06.177Z,29.26
2022-08-11T17:05:55.231Z,29.22
2022-08-11T17:08:57.567Z,29.05
2022-08-11T17:11:47.030Z,28.92
2022-08-11T17:14:35.406Z,28.88
2022-08-11T17:17:17.236Z,28.37
2022-08-11T17:20:39.863Z,28.58
2022-08-11T17:22:57.508Z,28.59
2022-08-11T17:25:28.436Z,28.49
2022-08-11T17:27:57.823Z,28.40
2022-08-11T17:30:48.271Z,28.14
2022-08-11T17:33:37.010Z,27.99
2022-08-11T17:36:07.111Z,27.98
2022-08-11T17:38:37.311Z,27.98
2022-08-11T17:41:25.667Z,27.94
2022-08-11T17:44:13.583Z,28.01
2022-08-11T17:47:06.087Z,27.97
2022-08-11T17:49:39.336Z,27.78
2022-08-11T17:52:26.229Z,27.81
2022-08-11T17:55:14.048Z,27.77
2022-08-11T17:58:01.634Z,27.80
2022-08-11T18:00:31.818Z,27.84
2022-08-11T18:03:19.354Z,27.71
2022-08-11T18:05:59.450Z,27.49
2022-08-11T18:08:47.186Z,27.55
2022-08-11T18:12:10.799Z,27.43
2022-08-11T18:14:43.234Z,27.32
2022-08-11T18:17:29.137Z,26.93
2022-08-11T18:20:15.138Z,26.76
2022-08-11T18:23:05.875Z,26.52
2022-08-11T18:25:58.494Z,26.03
2022-08-11T18:28:51.676Z,26.12
2022-08-11T18:31:38.882Z,26.12
2022-08-11T18:34:30.509Z,26.09
2022-08-11T18:37:26.006Z,25.90
2022-08-11T18:40:20.936Z,25.80
2022-08-11T18:43:08.447Z,25.62
2022-08-11T18:46:06.681Z,25.58
2022-08-11T18:48:55.621Z,25.33
2022-08-11T18:51:42.542Z,24.62
2022-08-11T18:54:30.543Z,25.02
2022-08-11T18:57:23.002Z,24.79
2022-08-11T19:00:10.939Z,24.78
2022-08-11T19:02:58.792Z,24.64
2022-08-11T19:06:35.160Z,24.46
2022-08-11T19:08:59.046Z,24.42
2022-08-11T19:11:47.573Z,24.33
2022-08-11T19:14:36.994Z,24.22
2022-08-11T19:17:43.587Z,24.11
2022-08-11T19:20:36.940Z,23.73
2022-08-11T19:23:25.973Z,23.93
2022-08-11T19:26:12.887Z,23.74
2022-08-11T19:29:03.384Z,23.49
2022-08-11T19:31:51.662Z,23.38
2022-08-11T19:34:41.759Z,22.96
2022-08-11T19:37:29.970Z,23.00
2022-08-11T19:40:20.029Z,22.94
2022-08-11T19:43:11.194Z,22.69
2022-08-11T19:46:10.975Z,22.62
2022-08-11T19:49:00.361Z,22.45
2022-08-11T19:51:53.642Z,22.29
2022-08-11T19:54:44.603Z,22.26
2022-08-11T19:57:37.142Z,22.19
2022-08-11T20:00:30.293Z,22.20
2022-08-11T20:03:22.442Z,21.87
2022-08-11T20:06:10.763Z,21.94
2022-08-11T20:09:00.891Z,21.84
2022-08-11T20:11:51.737Z,21.65
2022-08-11T20:14:40.184Z,21.39
2022-08-11T20:17:27.328Z,21.44
2022-08-11T20:20:14.052Z,21.48
2022-08-11T20:23:02.876Z,21.18
2022-08-11T20:25:51.296Z,21.13
2022-08-11T20:28:38.940Z,21.26
2022-08-11T20:31:28.322Z,20.27
2022-08-11T20:34:15.228Z,20.98
2022-08-11T20:37:03.204Z,20.54
2022-08-11T20:39:52.429Z,20.73
2022-08-11T20:42:39.845Z,20.62
2022-08-11T20:45:28.885Z,20.67
2022-08-11T20:48:17.373Z,20.37
2022-08-11T20:51:07.322Z,20.41
2022-08-11T20:53:57.382Z,20.35
2022-08-11T20:56:51.046Z,20.34
2022-08-11T20:59:49.303Z,20.39
2022-08-11T21:02:44.428Z,20.46
2022-08-11T21:06:08.598Z,20.58
2022-08-11T21:08:38.591Z,20.62
2022-08-11T21:11:30.987Z,20.45
2022-08-11T21:14:20.711Z,20.39
2022-08-11T21:17:27.541Z,20.41
2022-08-11T21:20:21.260Z,20.57
2022-08-11T21:23:18.472Z,20.62
2022-08-11T21:26:15.156Z,20.60
2022-08-11T21:29:02.261Z,20.66
2022-08-11T21:31:51.915Z,20.59
2022-08-11T21:34:41.008Z,20.51
2022-08-11T21:37:28.928Z,20.51
2022-08-11T21:40:18.094Z,20.58
2022-08-11T21:43:06.983Z,20.55
2022-08-11T21:45:55.964Z,20.53
2022-08-11T21:48:45.097Z,20.52
2022-08-11T21:51:31.163Z,20.43
2022-08-11T21:54:18.634Z,21.01
2022-08-11T21:57:06.018Z,20.42
2022-08-11T22:00:01.017Z,20.40
2022-08-11T22:02:49.085Z,20.46
2022-08-11T22:05:42.459Z,20.37
2022-08-11T22:08:30.692Z,20.44
2022-08-11T22:11:32.329Z,20.32
2022-08-11T22:14:19.221Z,20.44
2022-08-11T22:17:05.187Z,20.27
2022-08-11T22:19:53.515Z,20.26
2022-08-11T22:22:52.034Z,20.21
2022-08-11T22:25:46.545Z,20.20
2022-08-11T22:28:38.609Z,20.20
2022-08-11T22:31:25.892Z,20.06
2022-08-11T22:34:11.649Z,20.04
2022-08-11T22:36:58.121Z,19.97
2022-08-11T22:40:01.837Z,19.85
2022-08-11T22:42:49.818Z,19.80
2022-08-11T22:45:36.096Z,19.97
2022-08-11T22:48:24.467Z,19.87
2022-08-11T22:51:10.751Z,19.82
2022-08-11T22:53:59.229Z,19.62
2022-08-11T22:56:49.429Z,19.61
2022-08-11T22:59:36.934Z,19.64
2022-08-11T23:02:25.254Z,19.54
2022-08-11T23:05:12.555Z,19.50
2022-08-11T23:07:59.440Z,19.62
2022-08-11T23:10:46.513Z,19.41
2022-08-11T23:13:34.490Z,19.46
2022-08-11T23:16:21.398Z,19.36
2022-08-11T23:19:07.735Z,19.40
2022-08-11T23:21:54.723Z,19.38
2022-08-11T23:24:43.696Z,19.35
2022-08-11T23:27:30.819Z,19.30
2022-08-11T23:30:20.276Z,19.46
2022-08-11T23:33:13.063Z,19.26
2022-08-11T23:36:03.618Z,19.13
2022-08-11T23:38:51.803Z,19.08
2022-08-11T23:41:38.277Z,19.18
2022-08-11T23:44:26.701Z,19.00
2022-08-11T23:47:19.430Z,18.85
2022-08-11T23:50:06.827Z,18.80
2022-08-11T23:52:54.291Z,18.65
2022-08-11T23:55:40.650Z,18.51
2022-08-11T23:58:27.203Z,18.50
